createdAt,value
2019-01-10T00:02:12.909Z,84.15
2019-01-10T00:04:39.648Z,83.51
2019-01-10T00:07:06.420Z,83.91
2019-01-10T00:09:33.176Z,84.05
2019-01-10T00:12:00.188Z,83.38
2019-01-10T00:14:26.940Z,82.11
2019-01-10T00:16:53.714Z,83.09
2019-01-10T00:19:20.452Z,82.38
2019-01-10T00:21:47.188Z,81.54
2019-01-10T00:24:13.960Z,81.85
2019-01-10T00:26:40.700Z,83.27
2019-01-10T00:29:07.488Z,84.31
2019-01-10T00:31:34.240Z,84.92
2019-01-10T00:34:01.001Z,85.43
2019-01-10T00:36:27.739Z,84.82
2019-01-10T00:38:54.503Z,84.62
2019-01-10T00:41:21.245Z,84.00
2019-01-10T00:43:48.015Z,83.61
2019-01-10T00:46:14.752Z,83.39
2019-01-10T00:48:41.544Z,83.05
2019-01-10T00:51:08.308Z,83.58
2019-01-10T00:53:35.040Z,82.07
2019-01-10T00:56:01.764Z,82.51
2019-01-10T00:58:28.527Z,83.08
2019-01-10T01:00:55.284Z,82.78
2019-01-10T01:03:22.044Z,81.84
2019-01-10T01:05:49.000Z,81.17
2019-01-10T01:08:15.749Z,81.51
2019-01-10T01:10:42.490Z,82.26
2019-01-10T01:13:09.252Z,82.33
2019-01-10T01:15:36.000Z,82.53
2019-01-10T01:18:02.761Z,83.89
2019-01-10T01:20:29.508Z,84.40
2019-01-10T01:22:56.261Z,84.48
2019-01-10T01:25:23.030Z,84.59
2019-01-10T01:27:49.774Z,85.02
2019-01-10T01:30:19.128Z,85.43
2019-01-10T01:32:45.947Z,85.72
2019-01-10T01:35:13.042Z,84.62
2019-01-10T01:37:39.771Z,83.08
2019-01-10T01:40:07.588Z,83.10
2019-01-10T01:42:34.336Z,83.15
2019-01-10T01:45:01.088Z,83.50
2019-01-10T01:47:27.844Z,83.28
2019-01-10T01:49:54.584Z,83.80
2019-01-10T01:52:21.344Z,84.56
2019-01-10T01:54:48.125Z,84.33
2019-01-10T01:57:14.876Z,83.59
2019-01-10T01:59:41.633Z,82.97
2019-01-10T02:02:08.377Z,83.56
2019-01-10T02:04:35.148Z,84.65
2019-01-10T02:07:01.894Z,85.70
2019-01-10T02:09:28.669Z,87.38
2019-01-10T02:11:55.412Z,88.35
2019-01-10T02:14:22.181Z,87.57
2019-01-10T02:16:48.928Z,87.99
2019-01-10T02:19:15.694Z,87.96
2019-01-10T02:21:42.448Z,88.77
2019-01-10T02:24:09.204Z,89.59
2019-01-10T02:26:35.944Z,88.93
2019-01-10T02:29:02.728Z,89.55
2019-01-10T02:31:29.485Z,89.82
2019-01-10T02:33:56.245Z,89.26
2019-01-10T02:36:23.008Z,89.97
2019-01-10T02:38:49.803Z,89.79
2019-01-10T02:41:16.605Z,89.95
2019-01-10T02:43:43.340Z,90.11
2019-01-10T02:46:10.088Z,89.55
2019-01-10T02:48:36.850Z,88.75
2019-01-10T02:51:03.606Z,88.64
2019-01-10T02:53:30.359Z,89.42
2019-01-10T02:55:57.124Z,89.73
2019-01-10T02:58:23.881Z,89.19
2019-01-10T03:00:50.647Z,89.10
2019-01-10T03:03:17.393Z,88.53
2019-01-10T03:05:44.144Z,88.48
2019-01-10T03:08:10.896Z,87.99
2019-01-10T03:10:37.652Z,88.01
2019-01-10T03:13:04.411Z,87.99
2019-01-10T03:15:31.208Z,87.17
2019-01-10T03:17:58.154Z,87.37
2019-01-10T03:20:24.934Z,87.14
2019-01-10T03:22:51.680Z,87.72
2019-01-10T03:25:18.437Z,87.99
2019-01-10T03:27:45.189Z,88.57
2019-01-10T03:30:13.985Z,87.76
2019-01-10T03:32:40.726Z,87.17
2019-01-10T03:35:08.436Z,86.39
2019-01-10T03:37:35.186Z,85.82
2019-01-10T03:40:02.016Z,85.49
2019-01-10T03:42:28.744Z,85.11
2019-01-10T03:44:55.508Z,85.08
2019-01-10T03:47:22.240Z,84.46
2019-01-10T03:49:48.997Z,84.24
2019-01-10T03:52:15.753Z,83.07
2019-01-10T03:54:42.578Z,83.20
2019-01-10T03:57:09.307Z,83.13
2019-01-10T03:59:36.160Z,83.66
2019-01-10T04:02:02.896Z,83.16
2019-01-10T04:04:29.625Z,83.11
2019-01-10T04:06:56.372Z,81.41
2019-01-10T04:09:23.105Z,82.57
2019-01-10T04:11:49.866Z,83.08
2019-01-10T04:14:16.606Z,83.25
2019-01-10T04:16:43.368Z,82.70
2019-01-10T04:19:10.112Z,81.44
2019-01-10T04:21:36.886Z,82.21
2019-01-10T04:24:03.633Z,82.22
2019-01-10T04:26:30.404Z,81.29
2019-01-10T04:28:57.173Z,81.48
2019-01-10T04:31:23.981Z,82.17
2019-01-10T04:33:50.712Z,81.52
2019-01-10T04:36:17.464Z,80.86
2019-01-10T04:38:44.216Z,80.70
2019-01-10T04:41:10.970Z,80.37
2019-01-10T04:43:37.710Z,82.07
2019-01-10T04:46:04.457Z,81.37
2019-01-10T04:48:31.210Z,81.69
2019-01-10T04:50:57.966Z,81.64
2019-01-10T04:53:26.704Z,80.88
2019-01-10T04:55:51.465Z,80.86
2019-01-10T04:58:18.206Z,81.41
2019-01-10T05:00:44.970Z,81.46
2019-01-10T05:03:11.704Z,80.53
2019-01-10T05:05:38.472Z,80.56
2019-01-10T05:08:05.209Z,79.44
2019-01-10T05:10:31.972Z,80.60
2019-01-10T05:12:58.739Z,80.52
2019-01-10T05:15:25.506Z,80.84
2019-01-10T05:17:52.248Z,79.93
2019-01-10T05:20:19.473Z,80.72
2019-01-10T05:22:46.292Z,80.79
2019-01-10T05:25:13.044Z,80.67
2019-01-10T05:27:39.800Z,80.64
2019-01-10T05:30:10.738Z,80.81
2019-01-10T05:32:37.528Z,79.98
2019-01-10T05:35:04.329Z,80.72
2019-01-10T05:37:31.132Z,81.43
2019-01-10T05:39:57.909Z,80.84
2019-01-10T05:42:24.720Z,80.76
2019-01-10T05:44:51.494Z,79.90
2019-01-10T05:47:18.299Z,80.20
2019-01-10T05:49:45.077Z,81.53
2019-01-10T05:52:11.883Z,81.87
2019-01-10T05:54:38.636Z,81.59
2019-01-10T05:57:05.438Z,79.09
2019-01-10T05:59:32.233Z,80.36
2019-01-10T06:01:59.028Z,80.06
2019-01-10T06:04:25.876Z,81.34
2019-01-10T06:06:52.708Z,81.94
2019-01-10T06:09:19.504Z,81.25
2019-01-10T06:11:46.305Z,80.37
2019-01-10T06:14:13.089Z,80.48
2019-01-10T06:16:39.904Z,81.00
2019-01-10T06:19:06.678Z,81.10
2019-01-10T06:21:33.472Z,80.66
2019-01-10T06:24:00.265Z,81.03
2019-01-10T06:26:27.077Z,79.59
2019-01-10T06:28:53.861Z,79.58
2019-01-10T06:31:20.661Z,79.65
2019-01-10T06:33:47.441Z,80.58
2019-01-10T06:36:14.248Z,80.54
2019-01-10T06:38:41.020Z,81.13
2019-01-10T06:41:07.824Z,81.07
2019-01-10T06:43:34.603Z,80.97
2019-01-10T06:46:01.425Z,80.22
2019-01-10T06:48:28.207Z,80.78
2019-01-10T06:50:55.004Z,80.21
2019-01-10T06:53:21.782Z,78.53
2019-01-10T06:55:48.572Z,79.00
2019-01-10T06:58:15.367Z,80.42
2019-01-10T07:00:42.170Z,79.84
2019-01-10T07:03:08.961Z,79.01
2019-01-10T07:05:35.693Z,80.28
2019-01-10T07:08:02.469Z,81.53
2019-01-10T07:10:29.524Z,80.48
2019-01-10T07:12:56.284Z,80.47
2019-01-10T07:15:23.041Z,80.57
2019-01-10T07:17:49.812Z,81.44
2019-01-10T07:20:16.558Z,81.18
2019-01-10T07:22:45.572Z,80.93
2019-01-10T07:25:12.404Z,81.51
2019-01-10T07:27:39.173Z,81.45
2019-01-10T07:30:06.912Z,80.56
2019-01-10T07:32:33.784Z,80.88
2019-01-10T07:35:04.323Z,81.65
2019-01-10T07:37:31.094Z,80.64
2019-01-10T07:39:57.828Z,80.67
2019-01-10T07:42:24.585Z,79.90
2019-01-10T07:44:51.323Z,80.67
2019-01-10T07:47:18.089Z,81.90
2019-01-10T07:49:44.820Z,82.12
2019-01-10T07:52:11.595Z,81.59
2019-01-10T07:54:38.335Z,81.48
2019-01-10T07:57:05.085Z,80.04
2019-01-10T07:59:31.819Z,81.27
2019-01-10T08:01:58.573Z,81.05
2019-01-10T08:04:25.312Z,80.42
2019-01-10T08:06:52.067Z,80.63
2019-01-10T08:09:18.813Z,80.55
2019-01-10T08:11:45.589Z,81.92
2019-01-10T08:14:12.344Z,81.25
2019-01-10T08:16:39.089Z,81.41
2019-01-10T08:19:05.857Z,80.94
2019-01-10T08:21:32.604Z,80.59
2019-01-10T08:23:59.392Z,80.57
2019-01-10T08:26:26.159Z,80.58
2019-01-10T08:28:52.928Z,80.29
2019-01-10T08:31:19.692Z,79.63
2019-01-10T08:33:46.455Z,79.18
2019-01-10T08:36:13.208Z,80.09
2019-01-10T08:38:39.988Z,80.77
2019-01-10T08:41:06.733Z,78.70
2019-01-10T08:43:33.492Z,79.00
2019-01-10T08:46:00.244Z,79.03
2019-01-10T08:48:27.016Z,78.68
2019-01-10T08:50:53.777Z,79.19
2019-01-10T08:53:21.726Z,78.88
2019-01-10T08:55:47.281Z,78.71
2019-01-10T08:58:14.048Z,78.32
2019-01-10T09:00:40.810Z,79.13
2019-01-10T09:03:07.585Z,79.27
2019-01-10T09:05:34.394Z,78.90
2019-01-10T09:08:01.167Z,77.67
2019-01-10T09:10:29.991Z,78.65
2019-01-10T09:12:56.757Z,78.62
2019-01-10T09:15:33.728Z,78.73
2019-01-10T09:17:50.287Z,79.65
2019-01-10T09:20:17.040Z,78.46
2019-01-10T09:22:43.821Z,78.85
2019-01-10T09:25:10.576Z,78.53
2019-01-10T09:27:37.356Z,78.36
2019-01-10T09:30:06.880Z,77.68
2019-01-10T09:32:33.689Z,77.22
2019-01-10T09:35:00.441Z,79.12
2019-01-10T09:37:27.196Z,78.28
2019-01-10T09:39:54.056Z,78.70
2019-01-10T09:42:20.716Z,78.64
2019-01-10T09:44:47.492Z,78.75
2019-01-10T09:47:14.254Z,78.36
2019-01-10T09:49:41.026Z,77.21
2019-01-10T09:52:07.773Z,77.68
2019-01-10T09:54:34.545Z,78.60
2019-01-10T09:57:01.297Z,78.59
2019-01-10T09:59:28.061Z,78.79
2019-01-10T10:01:54.832Z,79.11
2019-01-10T10:04:21.688Z,77.96
2019-01-10T10:06:48.437Z,77.80
2019-01-10T10:09:15.212Z,79.58
2019-01-10T10:11:41.952Z,78.85
2019-01-10T10:14:08.721Z,78.58
2019-01-10T10:16:35.468Z,78.57
2019-01-10T10:19:02.236Z,78.17
2019-01-10T10:21:28.981Z,78.10
2019-01-10T10:23:55.768Z,77.96
2019-01-10T10:26:22.528Z,78.02
2019-01-10T10:28:49.300Z,77.90
2019-01-10T10:31:16.044Z,77.97
2019-01-10T10:33:42.812Z,78.64
2019-01-10T10:36:09.559Z,79.03
2019-01-10T10:38:36.364Z,79.23
2019-01-10T10:41:03.180Z,78.80
2019-01-10T10:43:29.868Z,79.47
2019-01-10T10:46:01.557Z,78.58
2019-01-10T10:48:23.392Z,78.73
2019-01-10T10:50:50.123Z,78.41
2019-01-10T10:53:16.872Z,79.02
2019-01-10T10:55:43.624Z,79.43
2019-01-10T10:58:10.382Z,79.63
2019-01-10T11:00:37.161Z,79.34
2019-01-10T11:03:03.897Z,77.85
2019-01-10T11:05:30.657Z,79.59
2019-01-10T11:07:57.424Z,78.81
2019-01-10T11:10:24.352Z,78.57
2019-01-10T11:12:51.108Z,78.73
2019-01-10T11:15:17.907Z,78.45
2019-01-10T11:17:44.972Z,78.82
2019-01-10T11:20:13.914Z,78.09
2019-01-10T11:22:40.717Z,78.25
2019-01-10T11:25:10.436Z,78.33
2019-01-10T11:27:37.173Z,77.95
2019-01-10T11:30:04.799Z,78.42
2019-01-10T11:32:31.537Z,79.93
2019-01-10T11:34:58.296Z,78.77
2019-01-10T11:37:25.092Z,78.12
2019-01-10T11:39:51.912Z,78.11
2019-01-10T11:42:18.613Z,76.78
2019-01-10T11:44:45.355Z,78.14
2019-01-10T11:47:12.130Z,77.09
2019-01-10T11:49:39.433Z,78.77
2019-01-10T11:52:05.612Z,78.18
2019-01-10T11:54:32.372Z,79.43
2019-01-10T11:56:59.121Z,76.29
2019-01-10T11:59:25.888Z,76.70
2019-01-10T12:01:52.633Z,77.68
2019-01-10T12:04:19.400Z,76.56
2019-01-10T12:06:46.144Z,76.32
2019-01-10T12:09:12.912Z,77.66
2019-01-10T12:11:39.730Z,78.23
2019-01-10T12:14:06.493Z,77.56
2019-01-10T12:16:33.232Z,77.95
2019-01-10T12:19:00.032Z,79.33
2019-01-10T12:21:26.792Z,79.04
2019-01-10T12:23:53.568Z,76.12
2019-01-10T12:26:20.329Z,77.34
2019-01-10T12:28:47.070Z,76.81
2019-01-10T12:31:13.889Z,77.37
2019-01-10T12:33:41.783Z,78.39
2019-01-10T12:36:07.420Z,78.38
2019-01-10T12:38:34.194Z,76.49
2019-01-10T12:41:00.961Z,76.08
2019-01-10T12:43:27.704Z,77.33
2019-01-10T12:45:54.497Z,77.02
2019-01-10T12:48:21.348Z,76.95
2019-01-10T12:50:48.280Z,75.57
2019-01-10T12:53:14.946Z,75.54
2019-01-10T12:55:41.718Z,76.67
2019-01-10T12:58:08.493Z,77.96
2019-01-10T13:00:35.257Z,77.25
2019-01-10T13:03:02.044Z,78.68
2019-01-10T13:05:28.866Z,76.05
2019-01-10T13:08:03.371Z,77.48
2019-01-10T13:10:22.354Z,77.82
2019-01-10T13:12:49.273Z,78.00
2019-01-10T13:15:19.067Z,77.40
2019-01-10T13:17:45.904Z,76.59
2019-01-10T13:20:12.693Z,76.35
2019-01-10T13:22:39.584Z,78.08
2019-01-10T13:25:08.280Z,77.20
2019-01-10T13:27:35.034Z,76.84
2019-01-10T13:30:01.901Z,75.05
2019-01-10T13:32:28.653Z,76.59
2019-01-10T13:34:55.412Z,76.49
2019-01-10T13:37:22.192Z,77.11
2019-01-10T13:39:48.964Z,77.54
2019-01-10T13:42:15.712Z,78.33
2019-01-10T13:44:42.491Z,78.92
2019-01-10T13:47:09.249Z,78.96
2019-01-10T13:49:36.029Z,76.99
2019-01-10T13:52:02.791Z,78.46
2019-01-10T13:54:29.553Z,77.15
2019-01-10T13:56:56.441Z,76.16
2019-01-10T13:59:23.789Z,77.23
2019-01-10T14:01:49.922Z,78.34
2019-01-10T14:04:16.886Z,79.15
2019-01-10T14:06:43.685Z,77.84
2019-01-10T14:09:10.460Z,76.35
2019-01-10T14:11:37.220Z,76.47
2019-01-10T14:14:03.984Z,77.37
2019-01-10T14:16:30.750Z,76.45
2019-01-10T14:18:58.788Z,76.72
2019-01-10T14:21:25.628Z,77.04
2019-01-10T14:23:52.400Z,75.29
2019-01-10T14:26:19.261Z,75.58
2019-01-10T14:28:46.003Z,76.21
2019-01-10T14:31:12.757Z,78.00
2019-01-10T14:33:39.552Z,77.30
2019-01-10T14:36:06.302Z,76.80
2019-01-10T14:38:33.076Z,75.79
2019-01-10T14:40:59.828Z,76.43
2019-01-10T14:43:26.593Z,76.27
2019-01-10T14:45:53.389Z,75.62
2019-01-10T14:48:20.232Z,76.14
2019-01-10T14:50:46.984Z,76.80
2019-01-10T14:53:13.756Z,77.50
2019-01-10T14:55:40.545Z,77.57
2019-01-10T14:58:07.305Z,77.22
2019-01-10T15:00:34.064Z,76.20
2019-01-10T15:03:00.844Z,76.70
2019-01-10T15:05:27.604Z,75.46
2019-01-10T15:07:54.440Z,75.15
2019-01-10T15:10:21.196Z,75.67
2019-01-10T15:12:47.979Z,76.30
2019-01-10T15:15:16.782Z,76.63
2019-01-10T15:17:44.301Z,76.32
2019-01-10T15:20:13.185Z,77.22
2019-01-10T15:22:39.949Z,77.60
2019-01-10T15:25:06.732Z,76.80
2019-01-10T15:27:33.496Z,76.61
2019-01-10T15:30:00.281Z,76.47
2019-01-10T15:32:27.056Z,77.13
2019-01-10T15:34:53.812Z,77.83
2019-01-10T15:37:20.570Z,77.90
2019-01-10T15:39:47.380Z,77.22
2019-01-10T15:42:14.160Z,78.06
2019-01-10T15:44:40.912Z,77.33
2019-01-10T15:47:07.743Z,79.38
2019-01-10T15:49:34.493Z,79.93
2019-01-10T15:52:01.288Z,81.59
2019-01-10T15:54:28.066Z,79.13
2019-01-10T15:57:00.518Z,78.48
2019-01-10T15:59:21.644Z,79.09
2019-01-10T16:01:48.451Z,80.49
2019-01-10T16:04:15.211Z,80.24
2019-01-10T16:06:42.024Z,78.85
2019-01-10T16:09:08.908Z,78.26
2019-01-10T16:11:35.712Z,78.83
2019-01-10T16:14:02.477Z,78.51
2019-01-10T16:16:29.308Z,78.15
2019-01-10T16:18:56.147Z,78.97
2019-01-10T16:21:22.909Z,78.49
2019-01-10T16:23:49.668Z,78.79
2019-01-10T16:26:16.422Z,77.31
2019-01-10T16:28:43.196Z,77.27
2019-01-10T16:31:09.954Z,76.97
2019-01-10T16:33:36.854Z,76.55
2019-01-10T16:36:03.591Z,76.48
2019-01-10T16:38:30.353Z,76.89
2019-01-10T16:40:57.316Z,76.91
2019-01-10T16:43:24.216Z,77.76
2019-01-10T16:46:02.681Z,77.14
2019-01-10T16:48:29.438Z,78.22
2019-01-10T16:50:56.225Z,77.67
2019-01-10T16:53:24.080Z,77.38
2019-01-10T16:55:50.085Z,76.91
2019-01-10T16:58:16.917Z,76.47
2019-01-10T17:00:43.703Z,76.26
2019-01-10T17:03:10.484Z,75.22
2019-01-10T17:05:37.236Z,75.65
2019-01-10T17:08:04.180Z,76.38
2019-01-10T17:10:31.001Z,77.67
2019-01-10T17:12:57.776Z,79.09
2019-01-10T17:15:24.512Z,78.18
2019-01-10T17:17:51.336Z,79.01
2019-01-10T17:20:19.460Z,79.95
2019-01-10T17:22:46.239Z,79.43
2019-01-10T17:25:12.977Z,79.80
2019-01-10T17:27:39.732Z,80.16
2019-01-10T17:30:09.100Z,80.51
2019-01-10T17:32:35.835Z,79.52
2019-01-10T17:35:03.205Z,80.05
2019-01-10T17:37:29.958Z,79.28
2019-01-10T17:39:56.832Z,78.64
2019-01-10T17:42:23.610Z,78.15
2019-01-10T17:44:50.404Z,79.00
2019-01-10T17:47:17.221Z,78.20
2019-01-10T17:49:43.996Z,79.01
2019-01-10T17:52:10.743Z,78.92
2019-01-10T17:54:37.512Z,78.70
2019-01-10T17:57:04.284Z,78.66
2019-01-10T17:59:31.038Z,77.34
2019-01-10T18:01:57.787Z,79.21
2019-01-10T18:04:24.578Z,77.57
2019-01-10T18:06:51.320Z,77.79
2019-01-10T18:09:18.212Z,77.64
2019-01-10T18:11:44.961Z,78.60
2019-01-10T18:14:11.736Z,78.59
2019-01-10T18:16:38.496Z,78.79
2019-01-10T18:19:05.272Z,78.72
2019-01-10T18:21:32.025Z,78.77
2019-01-10T18:23:58.815Z,78.48
2019-01-10T18:26:25.576Z,80.30
2019-01-10T18:28:52.336Z,77.84
2019-01-10T18:31:19.148Z,78.46
2019-01-10T18:33:45.975Z,77.56
2019-01-10T18:36:12.748Z,79.04
2019-01-10T18:38:39.518Z,78.76
2019-01-10T18:41:06.269Z,78.94
2019-01-10T18:43:33.032Z,79.12
2019-01-10T18:45:59.804Z,79.70
2019-01-10T18:48:26.542Z,78.42
2019-01-10T18:50:53.308Z,79.83
2019-01-10T18:53:20.056Z,80.05
2019-01-10T18:55:46.820Z,80.36
2019-01-10T18:58:13.561Z,80.42
2019-01-10T19:00:40.329Z,81.39
2019-01-10T19:03:07.077Z,80.15
2019-01-10T19:05:33.848Z,81.17
2019-01-10T19:08:00.598Z,81.41
2019-01-10T19:10:27.356Z,79.26
2019-01-10T19:12:54.144Z,80.42
2019-01-10T19:15:20.897Z,80.70
2019-01-10T19:17:47.658Z,80.99
2019-01-10T19:20:17.930Z,82.01
2019-01-10T19:22:44.713Z,82.09
2019-01-10T19:25:11.477Z,81.32
2019-01-10T19:27:38.211Z,80.66
2019-01-10T19:30:08.820Z,81.37
2019-01-10T19:32:35.575Z,80.14
2019-01-10T19:35:02.424Z,81.35
2019-01-10T19:37:29.168Z,82.00
2019-01-10T19:39:55.954Z,81.15
2019-01-10T19:42:23.711Z,81.04
2019-01-10T19:44:49.480Z,81.86
2019-01-10T19:47:16.216Z,80.88
2019-01-10T19:49:42.992Z,81.54
2019-01-10T19:52:09.777Z,80.91
2019-01-10T19:54:36.540Z,80.95
2019-01-10T19:57:03.302Z,80.57
2019-01-10T19:59:30.065Z,81.29
2019-01-10T20:01:56.833Z,80.66
2019-01-10T20:04:23.584Z,81.04
2019-01-10T20:06:50.371Z,81.14
2019-01-10T20:09:17.125Z,80.52
2019-01-10T20:11:43.905Z,80.32
2019-01-10T20:14:10.662Z,81.06
2019-01-10T20:16:37.438Z,79.35
2019-01-10T20:19:04.190Z,78.95
2019-01-10T20:21:30.964Z,78.90
2019-01-10T20:23:57.802Z,78.05
2019-01-10T20:26:24.558Z,77.96
2019-01-10T20:28:51.284Z,77.50
2019-01-10T20:31:18.053Z,73.51
2019-01-10T20:33:44.808Z,75.16
2019-01-10T20:36:11.598Z,74.90
2019-01-10T20:38:38.348Z,76.74
2019-01-10T20:41:05.108Z,78.21
2019-01-10T20:43:31.864Z,80.09
2019-01-10T20:45:58.658Z,80.01
2019-01-10T20:48:25.404Z,78.57
2019-01-10T20:50:52.192Z,79.21
2019-01-10T20:53:18.936Z,81.35
2019-01-10T20:55:45.688Z,83.04
2019-01-10T20:58:12.453Z,83.50
2019-01-10T21:00:39.193Z,83.69
2019-01-10T21:03:05.963Z,83.39
2019-01-10T21:05:32.712Z,83.68
2019-01-10T21:07:59.544Z,81.76
2019-01-10T21:10:26.309Z,80.85
2019-01-10T21:12:53.073Z,78.43
2019-01-10T21:15:22.065Z,77.61
2019-01-10T21:17:49.258Z,77.91
2019-01-10T21:20:23.936Z,78.27
2019-01-10T21:22:50.376Z,81.72
2019-01-10T21:25:17.156Z,83.06
2019-01-10T21:27:43.925Z,84.79
2019-01-10T21:30:12.840Z,86.93
2019-01-10T21:32:40.995Z,84.38
2019-01-10T21:35:06.632Z,82.91
2019-01-10T21:37:33.408Z,83.28
2019-01-10T21:40:00.227Z,81.11
2019-01-10T21:42:26.929Z,81.52
2019-01-10T21:44:53.728Z,82.63
2019-01-10T21:47:20.493Z,85.30
2019-01-10T21:49:47.253Z,86.74
2019-01-10T21:52:14.016Z,86.52
2019-01-10T21:54:40.772Z,86.88
2019-01-10T21:57:07.544Z,85.24
2019-01-10T21:59:34.280Z,84.69
2019-01-10T22:02:01.128Z,86.12
2019-01-10T22:04:27.897Z,85.71
2019-01-10T22:06:54.652Z,85.59
2019-01-10T22:09:21.404Z,85.07
2019-01-10T22:11:48.184Z,84.36
2019-01-10T22:14:14.924Z,84.71
2019-01-10T22:16:41.665Z,81.91
2019-01-10T22:19:08.432Z,83.17
2019-01-10T22:21:35.172Z,81.25
2019-01-10T22:24:01.933Z,82.13
2019-01-10T22:26:28.684Z,82.37
2019-01-10T22:28:55.468Z,82.72
2019-01-10T22:31:22.284Z,82.36
2019-01-10T22:33:49.156Z,80.73
2019-01-10T22:36:15.909Z,82.59
2019-01-10T22:38:42.674Z,80.87
2019-01-10T22:41:09.424Z,80.02
2019-01-10T22:43:36.207Z,79.03
2019-01-10T22:46:02.946Z,78.80
2019-01-10T22:48:29.725Z,78.50
2019-01-10T22:50:56.477Z,78.82
2019-01-10T22:53:23.247Z,79.12
2019-01-10T22:55:49.997Z,79.42
2019-01-10T22:58:16.764Z,79.64
2019-01-10T23:01:01.072Z,80.75
2019-01-10T23:03:27.895Z,82.25
2019-01-10T23:05:54.651Z,81.80
2019-01-10T23:08:21.423Z,80.31
2019-01-10T23:10:48.169Z,80.33
2019-01-10T23:13:14.941Z,80.18
2019-01-10T23:15:41.696Z,79.54
2019-01-10T23:18:08.472Z,81.12
2019-01-10T23:20:35.217Z,80.10
2019-01-10T23:23:04.620Z,80.87
2019-01-10T23:25:31.360Z,79.81
2019-01-10T23:27:58.133Z,81.77
2019-01-10T23:30:44.456Z,80.13
2019-01-10T23:33:11.234Z,81.48
2019-01-10T23:35:38.009Z,79.93
2019-01-10T23:38:08.584Z,81.45
2019-01-10T23:40:35.507Z,81.06
2019-01-10T23:43:02.288Z,82.23
2019-01-10T23:45:29.052Z,81.27
2019-01-10T23:47:55.806Z,83.28
2019-01-10T23:50:22.572Z,81.60
2019-01-10T23:52:49.320Z,80.71
2019-01-10T23:55:16.103Z,80.92
2019-01-10T23:57:42.852Z,79.80
